Time;durP1;ratioP1;P1;durP2;ratioP2;P2;SDS_P1;SDS_P2;PMS_P1;PMS_P2;Temp;Humidity;BMP_temperature;BMP_pressure;BME280_temperature;BME280_humidity;BME280_pressure;Samples;Min_cycle;Max_cycle;Signal;HPM_P1;HPM_P2
2021/10/03 00:00:39;;;;;;;15.70;9.60;;;;;;;10.28;74.97;96961.80;115365;1199;28916;-90
2021/10/03 00:03:24;;;;;;;15.00;10.30;;;;;;;10.28;75.16;96963.89;115426;1192;34100;-91
2021/10/03 00:05:59;;;;;;;15.10;9.60;;;;;;;10.28;75.28;96964.48;115550;1198;38768;-91
2021/10/03 00:08:30;;;;;;;16.20;10.40;;;;;;;10.29;75.40;96961.82;115483;1199;37585;-92
2021/10/03 00:11:01;;;;;;;14.10;10.40;;;;;;;10.29;75.52;96955.63;115426;1199;27377;-91
2021/10/03 00:13:33;;;;;;;17.30;10.20;;;;;;;10.27;75.61;96957.30;115405;1199;28362;-93
2021/10/03 00:16:06;;;;;;;13.50;9.20;;;;;;;10.26;75.50;96953.21;115439;1193;30066;-92
2021/10/03 00:18:37;;;;;;;15.90;10.40;;;;;;;10.26;75.74;96952.79;115459;1199;37839;-92
2021/10/03 00:21:10;;;;;;;13.60;9.70;;;;;;;10.29;75.61;96953.81;115394;1199;28845;-91
2021/10/03 00:23:41;;;;;;;13.90;10.30;;;;;;;10.30;75.63;96955.66;115396;1200;29684;-90
2021/10/03 00:26:12;;;;;;;14.30;9.80;;;;;;;10.29;75.75;96958.86;115437;1193;36317;-91
2021/10/03 00:28:43;;;;;;;14.50;9.70;;;;;;;10.29;75.73;96957.27;115405;1193;28365;-92
2021/10/03 00:31:12;;;;;;;;;;;;;;;10.31;75.83;96946.45;115466;1199;29011;-91
2021/10/03 00:33:43;;;;;;;14.10;9.10;;;;;;;10.36;75.79;96955.70;115428;1199;26888;-92
2021/10/03 00:36:13;;;;;;;14.00;9.10;;;;;;;10.35;75.68;96958.24;115303;1200;28440;-91
2021/10/03 00:38:44;;;;;;;15.90;9.40;;;;;;;10.33;75.66;96950.56;115409;1199;30816;-91
2021/10/03 00:41:13;;;;;;;;;;;;;;;10.30;75.74;96952.38;115446;1200;30129;-92
2021/10/03 00:43:44;;;;;;;12.10;8.80;;;;;;;10.23;75.70;96953.85;115400;1186;30024;-92
2021/10/03 00:46:15;;;;;;;13.90;9.10;;;;;;;10.19;75.66;96950.29;115386;1199;38559;-91
2021/10/03 00:48:46;;;;;;;13.30;9.00;;;;;;;10.19;75.84;96952.36;115441;1199;30769;-92
2021/10/03 00:51:17;;;;;;;14.40;9.10;;;;;;;10.27;75.90;96950.94;115414;1199;30557;-91
2021/10/03 00:53:48;;;;;;;14.50;9.70;;;;;;;10.31;75.74;96954.29;115331;1200;29036;-92
2021/10/03 00:56:18;;;;;;;12.30;8.60;;;;;;;10.29;75.68;96955.19;115366;1199;28789;-91
2021/10/03 00:58:49;;;;;;;15.70;9.30;;;;;;;10.23;75.85;96940.30;115439;1199;29223;-92
2021/10/03 01:01:21;;;;;;;14.60;8.60;;;;;;;10.21;75.94;96939.44;115367;1200;27741;-92
2021/10/03 01:03:52;;;;;;;13.20;9.10;;;;;;;10.17;76.07;96945.38;115397;1195;28056;-91
2021/10/03 01:06:24;;;;;;;13.20;9.60;;;;;;;10.10;76.16;96931.38;115312;1200;27270;-91
2021/10/03 01:08:54;;;;;;;13.10;9.50;;;;;;;10.06;76.23;96936.58;115226;1200;27397;-91
2021/10/03 01:11:25;;;;;;;14.30;9.10;;;;;;;10.06;76.25;96941.35;115484;1199;27505;-90
2021/10/03 01:13:56;;;;;;;14.70;10.20;;;;;;;10.07;76.14;96943.25;115501;1199;33591;-91
2021/10/03 01:16:27;;;;;;;16.90;10.00;;;;;;;10.04;76.12;96941.83;115390;1199;31829;-89
2021/10/03 01:18:58;;;;;;;12.70;9.30;;;;;;;10.02;76.09;96946.71;115418;1199;27969;-91
2021/10/03 01:21:29;;;;;;;14.40;9.90;;;;;;;10.00;76.12;96944.11;115372;1193;29913;-91
2021/10/03 01:24:00;;;;;;;15.70;10.00;;;;;;;9.97;76.40;96934.88;115325;1199;29752;-92
2021/10/03 01:26:31;;;;;;;13.50;9.90;;;;;;;9.98;76.48;96936.73;115394;1199;26948;-91
2021/10/03 01:29:02;;;;;;;15.60;9.50;;;;;;;9.98;76.48;96941.23;115387;1193;27606;-91
2021/10/03 01:31:34;;;;;;;16.30;10.10;;;;;;;9.99;76.57;96933.41;115340;1199;50761;-91
2021/10/03 01:34:06;;;;;;;13.20;9.30;;;;;;;10.01;76.48;96944.23;115370;1199;26809;-92
2021/10/03 01:36:36;;;;;;;13.40;9.80;;;;;;;10.04;76.58;96935.85;115396;1199;30877;-91
2021/10/03 01:39:06;;;;;;;;;;;;;;;10.06;76.49;96937.85;115375;1199;31406;-92
2021/10/03 01:41:36;;;;;;;14.10;9.90;;;;;;;10.06;76.45;96932.02;115427;1199;27267;-89
2021/10/03 01:44:06;;;;;;;;;;;;;;;10.04;76.38;96930.34;115361;1199;31214;-91
2021/10/03 01:46:36;;;;;;;14.40;8.80;;;;;;;10.01;76.37;96918.52;115163;1193;29133;-91
2021/10/03 01:49:07;;;;;;;13.50;8.30;;;;;;;10.02;76.61;96919.42;115056;1200;30804;-91
2021/10/03 01:51:38;;;;;;;13.30;9.00;;;;;;;9.99;76.56;96919.80;115333;1199;29097;-91
2021/10/03 01:54:09;;;;;;;13.80;9.60;;;;;;;9.94;76.62;96911.84;115394;1199;28593;-91
2021/10/03 01:56:40;;;;;;;11.50;8.60;;;;;;;9.90;76.71;96906.52;115411;1192;28923;-90
2021/10/03 01:59:11;;;;;;;11.50;8.70;;;;;;;9.88;76.79;96902.75;115406;1193;26866;-92
2021/10/03 02:01:43;;;;;;;;;;;;;;;9.87;76.72;96901.48;115404;1192;29730;-91
2021/10/03 02:04:17;;;;;;;16.30;9.10;;;;;;;9.86;76.73;96905.77;115425;1192;30461;-88
2021/10/03 02:06:49;;;;;;;11.80;8.90;;;;;;;9.84;76.80;96904.11;115446;1193;31292;-92
2021/10/03 02:09:24;;;;;;;14.20;8.80;;;;;;;9.81;76.76;96900.89;115249;1193;28191;-92
2021/10/03 02:12:01;;;;;;;12.90;9.40;;;;;;;9.81;76.88;96900.15;115451;1192;27139;-91
2021/10/03 02:14:34;;;;;;;16.20;8.30;;;;;;;9.83;76.85;96902.16;115357;1199;29268;-90
2021/10/03 02:17:06;;;;;;;13.60;8.50;;;;;;;9.82;76.93;96896.55;115431;1193;29098;-91
2021/10/03 02:19:39;;;;;;;12.10;9.30;;;;;;;9.83;76.90;96900.98;115349;1193;26956;-91
2021/10/03 02:22:12;;;;;;;15.60;9.20;;;;;;;9.85;76.83;96901.89;115459;1199;28846;-91
2021/10/03 02:24:43;;;;;;;12.40;9.10;;;;;;;9.83;76.75;96901.73;115399;1199;34403;-92
2021/10/03 02:27:14;;;;;;;15.40;9.70;;;;;;;9.83;76.80;96898.29;115351;1199;29786;-91
2021/10/03 02:29:45;;;;;;;11.90;9.40;;;;;;;9.83;76.82;96898.92;115386;1199;34602;-90
2021/10/03 02:32:15;;;;;;;12.70;9.60;;;;;;;9.82;76.91;96896.44;115385;1199;31366;-90
2021/10/03 02:34:46;;;;;;;10.10;7.80;;;;;;;9.83;76.89;96901.42;115174;1200;28817;-91
2021/10/03 02:37:17;;;;;;;12.50;8.90;;;;;;;9.84;76.71;96896.70;115103;1200;29829;-91
2021/10/03 02:39:47;;;;;;;13.00;9.10;;;;;;;9.83;76.70;96891.98;115444;1199;29032;-92
2021/10/03 02:42:18;;;;;;;11.70;8.20;;;;;;;9.83;76.76;96888.08;115361;1199;31680;-92
2021/10/03 02:44:49;;;;;;;11.70;8.70;;;;;;;9.80;76.73;96887.28;115263;1200;28456;-91
2021/10/03 02:47:20;;;;;;;15.30;9.40;;;;;;;9.80;76.76;96890.93;115278;1200;27762;-92
2021/10/03 02:49:51;;;;;;;13.00;8.20;;;;;;;9.79;76.64;96888.61;115193;1200;28366;-92
2021/10/03 02:52:21;;;;;;;14.80;8.50;;;;;;;9.80;76.69;96891.68;115216;1200;30574;-91
2021/10/03 02:54:53;;;;;;;13.00;9.50;;;;;;;9.81;76.67;96882.30;116203;1171;27183;-84
2021/10/03 02:57:23;;;;;;;13.90;9.40;;;;;;;9.81;76.56;96879.77;115142;1200;27712;-84
2021/10/03 02:59:54;;;;;;;14.80;9.70;;;;;;;9.80;76.60;96876.90;115176;1193;29540;-84
2021/10/03 03:02:25;;;;;;;13.00;9.30;;;;;;;9.78;76.48;96873.36;115120;1193;55158;-85
2021/10/03 03:04:56;;;;;;;14.00;8.70;;;;;;;9.78;76.51;96879.09;115546;1195;27791;-84
2021/10/03 03:07:26;;;;;;;14.40;9.20;;;;;;;9.76;76.55;96874.16;115472;1199;27994;-84
2021/10/03 03:09:57;;;;;;;12.50;8.90;;;;;;;9.75;76.46;96871.84;115416;1193;34682;-85
2021/10/03 03:12:28;;;;;;;13.20;9.50;;;;;;;9.75;76.45;96866.81;115393;1199;56079;-86
2021/10/03 03:14:59;;;;;;;15.70;9.50;;;;;;;9.75;76.38;96861.41;115437;1199;29749;-85
2021/10/03 03:17:30;;;;;;;14.60;9.40;;;;;;;9.75;76.45;96863.84;115512;1199;26359;-83
2021/10/03 03:20:01;;;;;;;12.20;9.30;;;;;;;9.75;76.32;96863.79;115454;1199;29103;-85
2021/10/03 03:22:31;;;;;;;16.50;9.40;;;;;;;9.75;76.37;96863.20;115510;1199;35347;-84
2021/10/03 03:25:04;;;;;;;13.30;9.00;;;;;;;9.71;76.41;96858.49;115401;1199;33422;-85
2021/10/03 03:27:35;;;;;;;11.90;8.30;;;;;;;9.68;76.46;96857.11;115369;1199;35312;-84
2021/10/03 03:30:08;;;;;;;14.20;10.10;;;;;;;9.68;76.47;96857.31;115414;1199;49059;-84
2021/10/03 03:32:39;;;;;;;14.20;9.30;;;;;;;9.68;76.42;96854.36;115301;1199;29418;-84
2021/10/03 03:35:12;;;;;;;11.60;7.90;;;;;;;9.66;76.35;96847.64;115420;1199;34946;-85
2021/10/03 03:37:43;;;;;;;11.80;8.70;;;;;;;9.65;76.39;96849.97;115478;1199;26825;-85
2021/10/03 03:40:15;;;;;;;11.60;9.40;;;;;;;9.62;76.49;96852.52;115403;1199;34116;-86
2021/10/03 03:42:47;;;;;;;12.00;8.40;;;;;;;9.57;76.66;96855.00;115444;1199;29623;-84
2021/10/03 03:45:18;;;;;;;15.50;9.40;;;;;;;9.52;76.75;96852.45;115411;1199;31096;-84
2021/10/03 03:47:49;;;;;;;12.70;8.40;;;;;;;9.51;76.79;96855.48;115441;1194;29198;-85
2021/10/03 03:50:20;;;;;;;12.50;9.10;;;;;;;9.52;76.84;96849.17;115424;1199;34288;-85
2021/10/03 03:52:51;;;;;;;13.10;7.90;;;;;;;9.54;76.87;96849.86;115435;1194;30757;-85
2021/10/03 03:55:21;;;;;;;13.30;8.80;;;;;;;9.55;77.01;96850.55;115463;1193;29087;-85
2021/10/03 03:57:53;;;;;;;13.30;8.90;;;;;;;9.54;76.88;96850.76;115337;1193;55682;-84
2021/10/03 04:00:23;;;;;;;12.00;8.60;;;;;;;9.54;76.85;96851.23;115349;1199;31641;-86
2021/10/03 04:02:54;;;;;;;11.50;7.80;;;;;;;9.53;76.83;96852.23;115456;1199;25988;-85
2021/10/03 04:05:25;;;;;;;12.20;9.50;;;;;;;9.51;76.99;96854.36;115422;1192;29246;-86
2021/10/03 04:07:56;;;;;;;11.90;8.30;;;;;;;9.51;77.07;96853.58;115437;1199;28035;-84
2021/10/03 04:10:26;;;;;;;13.40;8.60;;;;;;;9.52;77.02;96853.57;115493;1199;28255;-86
2021/10/03 04:12:57;;;;;;;12.00;8.40;;;;;;;9.53;77.01;96847.74;115434;1199;55588;-85
2021/10/03 04:15:28;;;;;;;12.00;8.10;;;;;;;9.52;76.94;96847.33;115447;1199;29780;-84
2021/10/03 04:17:59;;;;;;;14.40;8.90;;;;;;;9.50;76.97;96847.38;115492;1199;28078;-82
2021/10/03 04:20:30;;;;;;;11.50;8.70;;;;;;;9.47;77.13;96850.52;115541;1199;28162;-84
2021/10/03 04:23:00;;;;;;;12.30;8.40;;;;;;;9.44;77.15;96849.30;115482;1193;28270;-84
2021/10/03 04:25:31;;;;;;;10.40;8.00;;;;;;;9.41;77.15;96851.97;115578;1199;25958;-85
2021/10/03 04:28:02;;;;;;;12.10;8.30;;;;;;;9.38;77.27;96852.98;115506;1199;31550;-84
2021/10/03 04:30:31;;;;;;;;;;;;;;;9.36;77.34;96852.30;115532;1193;28723;-84
2021/10/03 04:33:02;;;;;;;13.80;9.10;;;;;;;9.34;77.37;96847.39;115443;1199;27441;-85
2021/10/03 04:35:32;;;;;;;12.10;8.40;;;;;;;9.29;77.47;96846.58;115499;1199;50198;-85
2021/10/03 04:38:03;;;;;;;13.30;8.90;;;;;;;9.26;77.50;96844.98;115470;1192;31089;-86
2021/10/03 04:40:34;;;;;;;13.20;8.50;;;;;;;9.25;77.67;96848.84;115204;1200;26943;-82
2021/10/03 04:43:05;;;;;;;13.40;8.90;;;;;;;9.26;77.61;96852.28;115367;1199;28183;-84
2021/10/03 04:45:37;;;;;;;14.30;8.40;;;;;;;9.23;77.60;96852.02;115241;1199;39996;-84
2021/10/03 04:48:08;;;;;;;12.30;8.20;;;;;;;9.22;77.67;96851.97;115204;1200;29618;-84
2021/10/03 04:50:39;;;;;;;12.90;8.10;;;;;;;9.23;77.51;96847.52;115375;1193;28335;-84
2021/10/03 04:53:10;;;;;;;14.30;8.70;;;;;;;9.27;77.55;96850.27;115275;1199;27766;-85
2021/10/03 04:55:41;;;;;;;11.30;7.90;;;;;;;9.45;77.62;96852.14;115273;1200;29447;-85
2021/10/03 04:58:12;;;;;;;12.20;9.00;;;;;;;9.68;77.34;96850.08;115385;1199;27261;-85
2021/10/03 05:00:43;;;;;;;11.80;8.50;;;;;;;9.96;76.89;96849.98;115359;1193;26706;-85
2021/10/03 05:03:13;;;;;;;12.70;7.70;;;;;;;10.30;76.44;96843.73;115407;1199;28686;-86
2021/10/03 05:05:45;;;;;;;11.60;7.40;;;;;;;10.63;75.61;96846.03;115209;1200;26592;-89
2021/10/03 05:08:16;;;;;;;11.30;7.50;;;;;;;10.75;74.97;96847.47;115230;1199;53259;-86
2021/10/03 05:10:45;;;;;;;;;;;;;;;10.77;74.79;96849.16;115252;1192;26274;-83
2021/10/03 05:13:15;;;;;;;11.60;7.50;;;;;;;10.90;74.81;96846.64;115363;1199;30037;-87
2021/10/03 05:15:46;;;;;;;10.20;7.70;;;;;;;11.12;74.40;96852.08;115206;1200;27758;-86
2021/10/03 05:18:17;;;;;;;10.00;7.30;;;;;;;11.40;74.10;96855.61;115182;1200;31186;-86
2021/10/03 05:20:46;;;;;;;;;;;;;;;11.74;73.58;96858.89;115257;1200;28340;-85
2021/10/03 05:23:17;;;;;;;10.30;6.40;;;;;;;12.02;72.85;96857.18;115292;1199;31058;-86
2021/10/03 05:25:48;;;;;;;9.80;7.20;;;;;;;12.35;72.13;96855.62;115323;1199;35413;-85
2021/10/03 05:28:19;;;;;;;9.30;6.40;;;;;;;12.75;70.94;96858.52;115251;1199;28250;-85
2021/10/03 05:30:50;;;;;;;9.50;5.80;;;;;;;13.16;70.51;96863.27;115235;1199;29681;-85
2021/10/03 05:33:21;;;;;;;13.10;7.30;;;;;;;13.64;69.35;96862.88;115174;1200;30055;-85
2021/10/03 05:35:52;;;;;;;11.00;7.00;;;;;;;13.95;67.96;96861.30;115220;1200;31232;-86
2021/10/03 05:38:23;;;;;;;9.70;6.20;;;;;;;14.14;66.53;96858.67;115155;1200;29741;-86
2021/10/03 05:40:53;;;;;;;9.70;6.40;;;;;;;14.25;66.40;96861.98;115344;1199;89142;-86
2021/10/03 05:43:24;;;;;;;9.30;6.70;;;;;;;14.64;66.11;96859.30;115203;1199;34115;-88
2021/10/03 05:45:55;;;;;;;8.80;6.40;;;;;;;14.98;64.61;96855.75;115427;1192;26544;-86
2021/10/03 05:48:26;;;;;;;9.00;5.90;;;;;;;15.26;64.48;96855.55;115245;1199;55178;-86
2021/10/03 05:50:57;;;;;;;8.30;5.90;;;;;;;15.75;63.49;96851.34;115359;1199;26187;-86
2021/10/03 05:53:28;;;;;;;10.20;6.40;;;;;;;15.87;61.83;96850.00;115212;1200;29978;-86
2021/10/03 05:55:59;;;;;;;9.20;6.20;;;;;;;16.06;62.07;96848.19;115223;1200;33115;-87
2021/10/03 05:58:29;;;;;;;7.90;6.00;;;;;;;16.47;61.24;96846.35;115214;1193;28283;-87
2021/10/03 06:01:01;;;;;;;9.70;6.60;;;;;;;16.60;59.67;96843.05;115262;1199;49800;-86
2021/10/03 06:03:32;;;;;;;8.90;6.30;;;;;;;16.57;58.82;96842.31;115328;1199;27277;-87
2021/10/03 06:06:02;;;;;;;8.50;6.30;;;;;;;16.77;58.44;96845.98;115336;1199;31106;-87
2021/10/03 06:08:33;;;;;;;10.00;6.90;;;;;;;17.35;58.55;96846.42;115365;1199;29418;-86
2021/10/03 06:11:04;;;;;;;7.80;6.70;;;;;;;17.76;57.02;96841.99;115156;1193;53660;-85
2021/10/03 06:13:35;;;;;;;10.00;6.60;;;;;;;17.81;56.06;96843.55;115211;1185;29344;-86
2021/10/03 06:16:06;;;;;;;9.10;6.50;;;;;;;17.99;54.40;96842.73;113962;1199;1673064;-87
2021/10/03 06:18:37;;;;;;;8.00;6.10;;;;;;;17.94;53.39;96840.95;115297;1199;31042;-87
2021/10/03 06:21:13;;;;;;;8.50;5.70;;;;;;;17.99;53.80;96847.04;115270;1192;30681;-85
2021/10/03 06:23:46;;;;;;;6.00;5.30;;;;;;;18.31;54.06;96840.38;115157;1200;28059;-86
2021/10/03 06:26:18;;;;;;;9.20;6.50;;;;;;;18.71;53.04;96837.38;115291;1199;27934;-85
2021/10/03 06:28:49;;;;;;;10.20;5.70;;;;;;;19.22;53.91;96839.85;115211;1200;28426;-87
2021/10/03 06:31:20;;;;;;;8.00;5.30;;;;;;;20.07;53.03;96834.66;115192;1200;26903;-85
2021/10/03 06:33:50;;;;;;;8.00;5.30;;;;;;;20.36;50.56;96834.05;115161;1200;26688;-85
2021/10/03 06:36:22;;;;;;;8.30;5.60;;;;;;;20.34;49.54;96833.25;115445;1199;27676;-86
2021/10/03 06:38:52;;;;;;;8.20;5.30;;;;;;;19.92;48.19;96835.14;115510;1199;29741;-85
2021/10/03 06:41:23;;;;;;;7.70;5.50;;;;;;;20.05;48.34;96835.45;115450;1192;30821;-85
2021/10/03 06:43:54;;;;;;;7.80;5.10;;;;;;;20.67;49.98;96836.90;115454;1199;31597;-85
2021/10/03 06:46:25;;;;;;;7.50;5.00;;;;;;;21.31;47.97;96841.57;115463;1199;27289;-86
2021/10/03 06:48:57;;;;;;;7.50;5.00;;;;;;;21.59;48.20;96847.91;115455;1199;29454;-85
2021/10/03 06:51:29;;;;;;;7.80;5.20;;;;;;;22.28;47.24;96849.34;115477;1199;31289;-85
2021/10/03 06:54:00;;;;;;;7.00;5.50;;;;;;;22.42;45.72;96852.27;115543;1193;29996;-85
2021/10/03 06:56:31;;;;;;;7.30;5.80;;;;;;;22.33;44.06;96846.96;115523;1199;71141;-84
2021/10/03 06:59:02;;;;;;;6.60;5.40;;;;;;;21.81;43.90;96849.59;115512;1199;56536;-85
2021/10/03 07:02:03;;;;;;;6.70;5.30;;;;;;;21.88;44.95;96851.71;115504;1199;29688;-84
2021/10/03 07:04:34;;;;;;;7.60;4.90;;;;;;;22.53;43.98;96849.61;115547;1199;32275;-84
2021/10/03 07:07:06;;;;;;;9.00;5.20;;;;;;;22.85;42.44;96847.27;115455;1193;35420;-83
2021/10/03 07:09:37;;;;;;;9.70;5.90;;;;;;;22.61;43.31;96851.48;115438;1199;28992;-85
2021/10/03 07:12:09;;;;;;;9.90;5.20;;;;;;;23.14;43.43;96842.81;115460;1199;28782;-85
2021/10/03 07:14:42;;;;;;;9.50;5.60;;;;;;;23.65;42.39;96836.55;115510;1199;26726;-84
2021/10/03 07:17:14;;;;;;;8.40;5.50;;;;;;;23.78;41.54;96840.91;115360;1193;37914;-85
2021/10/03 07:19:45;;;;;;;6.80;4.70;;;;;;;23.35;40.91;96844.26;115458;1187;30822;-85
2021/10/03 07:22:16;;;;;;;8.70;5.40;;;;;;;23.11;40.83;96844.05;115425;1199;27513;-84
2021/10/03 07:24:49;;;;;;;8.80;5.10;;;;;;;23.21;42.53;96846.67;115442;1199;27977;-85
2021/10/03 07:27:20;;;;;;;8.30;5.70;;;;;;;23.59;41.10;96848.71;115357;1193;57685;-85
2021/10/03 07:29:51;;;;;;;6.60;5.40;;;;;;;23.36;41.54;96850.09;115363;1199;30443;-85
2021/10/03 07:32:23;;;;;;;11.20;5.60;;;;;;;23.68;41.85;96849.20;115202;1200;30341;-85
2021/10/03 07:34:54;;;;;;;9.80;5.90;;;;;;;23.42;40.68;96846.58;115401;1199;41486;-88
2021/10/03 07:37:25;;;;;;;8.20;5.80;;;;;;;23.20;40.91;96850.20;115168;1200;30583;-88
2021/10/03 07:39:56;;;;;;;7.50;5.20;;;;;;;22.73;42.14;96852.77;115388;1199;32197;-87
2021/10/03 07:42:27;;;;;;;10.40;5.20;;;;;;;22.93;42.54;96846.61;115565;1199;62163;-88
2021/10/03 07:44:57;;;;;;;7.40;5.20;;;;;;;22.80;42.29;96847.53;115448;1177;46150;-88
2021/10/03 07:47:28;;;;;;;9.10;5.40;;;;;;;22.27;41.31;96851.80;115408;1192;56412;-86
2021/10/03 07:49:59;;;;;;;8.00;4.80;;;;;;;21.72;42.58;96850.04;115323;1200;46456;-87
2021/10/03 07:52:31;;;;;;;7.80;5.90;;;;;;;21.51;42.92;96851.00;115373;1192;41340;-88
2021/10/03 07:55:02;;;;;;;10.30;5.50;;;;;;;21.26;43.29;96851.74;115392;1199;60558;-87
2021/10/03 07:57:36;;;;;;;7.10;5.50;;;;;;;21.02;43.74;96848.23;115306;1199;65425;-87
2021/10/03 08:00:09;;;;;;;8.70;5.60;;;;;;;21.04;43.94;96849.61;115336;1199;53635;-87
2021/10/03 08:02:40;;;;;;;8.70;5.40;;;;;;;20.99;44.12;96846.39;115417;1199;59466;-87
2021/10/03 08:05:12;;;;;;;8.40;5.40;;;;;;;20.90;44.25;96845.26;115334;1199;55135;-86
2021/10/03 08:07:44;;;;;;;7.10;5.00;;;;;;;20.85;44.13;96841.93;115274;1199;53186;-87
2021/10/03 08:10:15;;;;;;;8.90;4.90;;;;;;;20.66;44.07;96843.14;115244;1193;31400;-89
2021/10/03 08:12:48;;;;;;;8.00;6.00;;;;;;;20.52;44.32;96845.92;115385;1195;31195;-86
2021/10/03 08:15:20;;;;;;;9.20;5.60;;;;;;;20.12;44.84;96846.23;115409;1199;46278;-86
2021/10/03 08:17:51;;;;;;;6.90;4.90;;;;;;;19.89;45.16;96843.66;115444;1199;29657;-86
2021/10/03 08:20:24;;;;;;;8.70;5.10;;;;;;;19.80;45.84;96841.36;115443;1193;27663;-88
2021/10/03 08:22:56;;;;;;;8.30;5.20;;;;;;;19.80;46.03;96842.83;115431;1199;28935;-87
2021/10/03 08:25:27;;;;;;;9.50;5.70;;;;;;;19.70;45.69;96841.54;115475;1193;28023;-87
2021/10/03 08:28:00;;;;;;;8.70;5.00;;;;;;;19.30;46.23;96840.62;115456;1193;29799;-85
2021/10/03 08:30:31;;;;;;;8.90;5.40;;;;;;;19.02;46.39;96834.67;115470;1192;38887;-87
2021/10/03 08:33:02;;;;;;;11.10;6.00;;;;;;;18.79;47.17;96833.31;115458;1199;29344;-87
2021/10/03 08:35:34;;;;;;;9.50;5.90;;;;;;;18.54;47.55;96842.05;115530;1198;31635;-87
2021/10/03 08:38:05;;;;;;;10.30;6.90;;;;;;;18.51;47.88;96842.52;115398;1184;32520;-86
2021/10/03 08:40:35;;;;;;;8.50;6.00;;;;;;;18.50;48.03;96851.52;115371;1199;29981;-86
2021/10/03 08:43:08;;;;;;;8.40;6.10;;;;;;;18.54;48.28;96841.70;115468;1199;28054;-87
2021/10/03 08:45:43;;;;;;;11.30;6.00;;;;;;;18.50;48.72;96843.63;115398;1199;35508;-87
2021/10/03 08:48:16;;;;;;;7.60;5.60;;;;;;;18.51;48.77;96843.65;115561;1192;28024;-86
2021/10/03 08:50:49;;;;;;;7.90;5.40;;;;;;;18.46;49.25;96844.16;115596;1192;32067;-88
2021/10/03 08:53:20;;;;;;;7.60;5.10;;;;;;;18.56;49.49;96844.38;115576;1192;30785;-86
2021/10/03 08:55:56;;;;;;;7.40;5.20;;;;;;;18.62;49.35;96843.27;115537;1192;38444;-86
2021/10/03 08:58:34;;;;;;;7.90;5.20;;;;;;;18.55;49.45;96846.63;115583;1198;33900;-88
2021/10/03 09:01:11;;;;;;;7.20;5.20;;;;;;;18.44;48.86;96845.29;115590;1184;28938;-86
2021/10/03 09:03:42;;;;;;;8.30;5.20;;;;;;;18.19;49.12;96845.36;115626;1198;27040;-86
2021/10/03 09:06:13;;;;;;;10.20;5.20;;;;;;;18.11;49.42;96852.20;115564;1194;29638;-86
2021/10/03 09:08:47;;;;;;;8.00;5.40;;;;;;;18.05;50.16;96849.39;115571;1198;29792;-86
2021/10/03 09:11:19;;;;;;;7.20;5.00;;;;;;;18.09;49.89;96844.63;115591;1198;27839;-87
2021/10/03 09:13:52;;;;;;;7.00;5.00;;;;;;;17.98;49.73;96845.41;115590;1198;29138;-86
2021/10/03 09:16:33;;;;;;;8.90;5.40;;;;;;;17.90;49.85;96848.98;115619;1198;31156;-86
2021/10/03 09:19:13;;;;;;;;;;;;;;;17.83;50.03;96843.14;115676;1194;26843;-89
2021/10/03 09:21:46;;;;;;;6.80;5.50;;;;;;;17.69;49.78;96845.16;115643;1198;29254;-89
2021/10/03 09:24:20;;;;;;;8.00;5.30;;;;;;;17.54;50.33;96846.85;115646;1192;44095;-88
2021/10/03 09:27:00;;;;;;;7.60;5.50;;;;;;;17.46;50.62;96848.17;115495;1199;27932;-88
2021/10/03 09:29:33;;;;;;;5.80;5.00;;;;;;;17.51;51.27;96841.59;115411;1199;28025;-88
2021/10/03 09:32:15;;;;;;;9.10;5.60;;;;;;;17.56;51.15;96841.52;115734;1198;28722;-88
2021/10/03 09:34:49;;;;;;;8.40;6.50;;;;;;;17.60;51.32;96841.14;115565;1199;36451;-88
2021/10/03 09:37:27;;;;;;;9.30;5.40;;;;;;;17.54;51.45;96842.25;115137;1200;29952;-87
2021/10/03 09:40:07;;;;;;;7.30;5.20;;;;;;;17.58;51.98;96845.05;115462;1199;33849;-88
2021/10/03 09:42:39;;;;;;;;;;;;;;;17.71;51.76;96843.26;115594;1198;31980;-88
2021/10/03 09:45:13;;;;;;;7.80;5.40;;;;;;;17.83;52.32;96841.11;115393;1199;29088;-88
2021/10/03 09:47:46;;;;;;;9.80;5.70;;;;;;;17.98;52.15;96838.66;115037;1200;37115;-88
2021/10/03 09:50:20;;;;;;;6.40;4.80;;;;;;;18.10;52.05;96840.84;115396;1199;53503;-86
2021/10/03 09:52:52;;;;;;;7.90;5.30;;;;;;;18.21;51.85;96837.02;115428;1199;52498;-84
2021/10/03 09:55:26;;;;;;;8.80;5.10;;;;;;;18.25;51.95;96837.09;115490;1192;31260;-84
2021/10/03 09:57:58;;;;;;;7.90;5.10;;;;;;;18.35;51.68;96832.27;115502;1199;31201;-83
2021/10/03 10:03:41;;;;;;;6.30;4.80;;;;;;;18.46;50.99;96823.88;106934;1199;6860595;-83
2021/10/03 10:06:14;;;;;;;9.10;5.30;;;;;;;18.38;51.42;96822.27;115615;1199;31178;-85
2021/10/03 10:08:47;;;;;;;7.30;5.10;;;;;;;18.44;51.75;96820.60;115498;1199;28960;-82
2021/10/03 10:11:25;;;;;;;6.50;4.70;;;;;;;18.55;51.69;96820.09;115495;1198;30490;-84
2021/10/03 10:13:58;;;;;;;5.30;4.60;;;;;;;18.57;51.51;96816.73;115553;1199;44745;-83
2021/10/03 10:16:47;;;;;;;9.60;4.80;;;;;;;18.57;51.89;96814.27;115557;1184;31681;-85
2021/10/03 10:19:38;;;;;;;8.60;5.20;;;;;;;18.61;52.30;96809.61;115541;1192;31584;-86
2021/10/03 10:22:38;;;;;;;6.10;4.40;;;;;;;18.71;52.62;96804.81;115574;1194;28283;-85
2021/10/03 10:25:18;;;;;;;6.90;4.60;;;;;;;18.63;51.87;96796.57;115575;1199;30330;-85
2021/10/03 10:28:11;;;;;;;6.00;4.60;;;;;;;18.59;51.84;96793.73;115516;1194;34809;-85
2021/10/03 10:31:12;;;;;;;6.90;4.30;;;;;;;18.64;52.72;96790.09;115516;1199;34765;-84
2021/10/03 10:34:07;;;;;;;7.10;5.00;;;;;;;18.83;52.61;96787.58;115496;1198;32584;-85
2021/10/03 10:36:53;;;;;;;8.80;5.60;;;;;;;18.95;52.38;96782.05;115384;1199;30875;-87
2021/10/03 10:39:31;;;;;;;6.80;4.40;;;;;;;19.03;52.67;96780.89;115351;1199;43023;-89
2021/10/03 10:42:03;;;;;;;7.10;4.40;;;;;;;19.10;52.65;96777.13;115707;1192;30468;-88
2021/10/03 10:44:42;;;;;;;5.10;3.80;;;;;;;19.13;52.72;96775.20;115647;1192;64265;-88
2021/10/03 10:47:21;;;;;;;6.80;4.00;;;;;;;19.24;53.08;96772.73;115323;1199;28603;-88
2021/10/03 10:49:55;;;;;;;7.90;3.80;;;;;;;19.24;52.41;96771.59;115447;1199;37442;-86
2021/10/03 10:52:34;;;;;;;6.00;4.10;;;;;;;19.26;52.19;96771.04;114920;1200;89223;-85
2021/10/03 10:55:40;;;;;;;4.20;3.40;;;;;;;19.21;51.23;96762.43;115304;1200;27387;-85
2021/10/03 10:58:19;;;;;;;5.10;3.80;;;;;;;19.18;50.52;96759.62;115241;1200;42797;-85
2021/10/03 11:01:04;;;;;;;6.30;3.70;;;;;;;19.19;50.57;96757.73;113857;1199;1644392;-86
2021/10/03 11:04:04;;;;;;;5.30;3.50;;;;;;;19.19;50.36;96753.15;115423;1199;53814;-85
2021/10/03 11:07:02;;;;;;;4.70;3.30;;;;;;;19.29;50.57;96746.48;115306;1198;57381;-83
2021/10/03 11:10:03;;;;;;;4.00;3.40;;;;;;;19.28;49.31;96750.77;115464;1199;71148;-85
2021/10/03 11:12:35;;;;;;;5.00;3.60;;;;;;;19.24;50.02;96740.92;115385;1199;80402;-85
2021/10/03 11:15:33;;;;;;;8.40;4.10;;;;;;;19.37;50.62;96739.41;115382;1192;58036;-84
2021/10/03 11:18:08;;;;;;;8.20;3.40;;;;;;;19.40;49.93;96742.10;115571;1197;56176;-86
2021/10/03 11:20:57;;;;;;;5.80;3.90;;;;;;;19.39;49.58;96737.33;115416;1199;60327;-86
2021/10/03 11:23:28;;;;;;;6.90;3.90;;;;;;;19.44;49.89;96738.05;115479;1199;56824;-85
2021/10/03 11:26:08;;;;;;;5.00;3.70;;;;;;;19.48;49.50;96736.02;113864;1200;1664086;-85
2021/10/03 11:28:53;;;;;;;5.50;3.40;;;;;;;19.55;50.10;96739.23;115264;1193;56203;-86
2021/10/03 11:31:40;;;;;;;5.40;3.40;;;;;;;19.65;50.29;96738.39;115168;1199;84109;-86
2021/10/03 11:34:24;;;;;;;8.00;3.40;;;;;;;19.80;50.44;96731.67;115509;1185;60297;-86
2021/10/03 11:36:59;;;;;;;5.80;3.30;;;;;;;19.95;48.92;96732.00;115402;1192;58999;-87
2021/10/03 11:39:44;;;;;;;96.90;54.60;;;;;;;19.97;48.48;96730.27;115301;1199;58655;-85
2021/10/03 11:42:19;;;;;;;222.10;145.90;;;;;;;20.02;48.82;96729.31;115387;1199;57611;-85
2021/10/03 11:44:57;;;;;;;207.90;145.50;;;;;;;20.03;49.02;96730.73;115396;1198;60228;-87
2021/10/03 11:47:36;;;;;;;92.90;75.60;;;;;;;20.01;48.40;96726.46;115181;1192;93554;-90
2021/10/03 11:50:09;;;;;;;64.40;49.10;;;;;;;19.93;47.91;96728.02;115595;1199;52269;-84
2021/10/03 11:52:41;;;;;;;35.50;29.60;;;;;;;19.97;47.96;96731.44;115422;1199;56554;-84
2021/10/03 11:55:17;;;;;;;1211.20;744.70;;;;;;;20.09;47.91;96727.62;115492;1199;56884;-86